Aeroporto :
LOGIN :

Iscrizione | Disclaimer

   EN    FR    IT 

 










Sommario :    VFR   VFR Marginale   IFR   IFR Intensivo   IFR Molto Intensivo
Visibilità : 
Base nubi : 
>= 8 km
>= 3000ft
5 / 8 km
1000 / 3000 ft
1500m / 5 km
500 / 1000 ft
800 / 1500m
200 / 500 ft
< 800m
< 200 ft
Simboli :   Temporali  Nebbia  Neve Forte  Precipitazioni Forti  Vento > 20 kt
SIGMETs :   Varie  Temporali  Ghiacco  Turbolenza  Onda orograficha  Ceneri Vulcaniche






- Altitudine del aeroporto : 776 ft
- Codice IATA : RMS


ETAR - Ramstein Air Base

ULTIMO METAR :
  • 150456Z 24016G22KT 9000 -RA BR SCT014 OVC032 09/09 A2951 RMK AO2A SLP000 P0008 T00920092 $

METARs OBSOLETI :
  • 150411Z 25004KT 9999 -RA FEW014 BKN033 OVC041 08/08 A2950 RMK AO2A SLP997 $
  • 150356Z 27007KT 8000 -RA FEW006 FEW014 BKN026 OVC042 08/08 A2951 RMK AO2A CIG 016 RWY08 SLP000 P0010 T00780078 $
  • 150342Z 25006KT 6000 -RA BR FEW005 OVC023 08/08 A2951 RMK AO2A CIG 018V025 CIG 016 RWY08 SLP000 $
  • 150321Z 25004KT 6000 -RA BR FEW003 SCT014 OVC024 08/08 A2951 RMK AO2A CIG 013V028 CIG 017 RWY08 SLP000 $
  • 150309Z 25012KT 9999 -RA BR FEW015 OVC030 08/08 A2951 RMK AO2A SLP000 $
  • 150256Z 21011KT 9000 RA BR OVC032 08/08 A2951 RMK AO2A SLP000 P0011 60014 T00820082 57020 $

TAF AMD TAF ETAR
Valido dal 15 a 03 ore il 16 a 08 ore UTC


150358Z 1503/1608 24009KT 9000 -SHRA SCT015 BKN035 610702 510003 QNH2948INS
TEMPO 1503/1505 24010G20KT
BECMG 1504/1505 22015G30KT 8000 -SHRA BKN020 610702 520003 QNH2948INS
BECMG 1512/1513 24012KT 9999 NSW BKN020 OVC070 QNH2966INS
BECMG 1520/1521 21009KT 9000 -SHRA BKN015 OVC020 QNH2980INS
BECMG 1603/1604 16006KT 8000 -SHRA BKN008 OVC015 610602 QNH2979INS TX10/1505Z TN07/1602Z



MetMap, La meteo Aeronautica in un colpo d'occhio ! - Copyright ORBIFLY Dicembre 2007 - Disclaimer

ORBIFLY MET'MAP TEAM :

Programmazione e sviluppo : Alexandra Zaïnal
Concezione : Baudouin d'Aumeries
Aiuto per la programmazione : Marc-Olivier Méhu
Supporto tecnico e logistico : Manuel Goepfert
Aiuto per la traduzione : Arnaldo La Scala

Contatto : metmap@orbifly.com




FONTI E CREDITI :

   NOAA